Time;durP1;ratioP1;P1;durP2;ratioP2;P2;SDS_P1;SDS_P2;PMS_P1;PMS_P2;Temp;Humidity;BMP_temperature;BMP_pressure;BME280_temperature;BME280_humidity;BME280_pressure;Samples;Min_cycle;Max_cycle;Signal;HPM_P1;HPM_P2
2021/07/09 00:01:45;;;;;;;4.20;3.50;;;22.60;71.80;;;;;;5091748;28;20028;-45
2021/07/09 00:04:13;;;;;;;4.03;3.45;;;22.60;72.50;;;;;;5092562;28;20044;-43
2021/07/09 00:06:40;;;;;;;4.43;3.47;;;22.60;71.90;;;;;;5091546;28;20504;-43
2021/07/09 00:09:06;;;;;;;3.30;3.00;;;22.60;71.90;;;;;;5090987;28;20052;-49
2021/07/09 00:11:34;;;;;;;4.20;3.17;;;22.60;71.90;;;;;;5091626;28;20118;-44
2021/07/09 00:14:00;;;;;;;3.92;3.10;;;22.60;71.90;;;;;;5091515;28;20523;-43
2021/07/09 00:16:26;;;;;;;3.17;2.88;;;22.60;71.90;;;;;;5092572;28;20063;-53
2021/07/09 00:18:52;;;;;;;3.25;2.90;;;22.60;71.90;;;;;;5091498;28;20085;-50
2021/07/09 00:21:18;;;;;;;4.43;2.90;;;22.60;71.90;;;;;;5091469;28;20040;-48
2021/07/09 00:23:44;;;;;;;3.63;3.13;;;22.60;71.90;;;;;;5091123;28;20048;-47
2021/07/09 00:26:10;;;;;;;3.50;2.90;;;22.60;71.90;;;;;;5092751;28;20051;-43
2021/07/09 00:28:36;;;;;;;2.80;2.50;;;22.60;72.00;;;;;;5091427;28;20135;-51
2021/07/09 00:31:02;;;;;;;3.20;2.63;;;22.60;72.00;;;;;;5091714;28;20436;-42
2021/07/09 00:33:28;;;;;;;3.63;2.50;;;22.60;72.00;;;;;;5091683;28;20109;-40
2021/07/09 00:35:54;;;;;;;3.75;2.78;;;22.60;72.00;;;;;;5091603;28;20373;-41
2021/07/09 00:38:20;;;;;;;2.78;2.30;;;22.60;72.00;;;;;;5109580;28;20071;-50
2021/07/09 00:40:45;;;;;;;2.85;2.53;;;22.60;72.10;;;;;;5096220;28;20059;-52
2021/07/09 00:43:12;;;;;;;2.63;2.25;;;22.60;72.00;;;;;;5091596;28;20054;-51
2021/07/09 00:45:38;;;;;;;2.67;2.40;;;22.60;72.10;;;;;;5091474;28;20051;-46
2021/07/09 00:48:04;;;;;;;2.30;2.10;;;22.60;72.10;;;;;;5092607;28;20056;-44
2021/07/09 00:50:30;;;;;;;2.80;2.38;;;22.60;72.10;;;;;;5091432;28;20082;-50
2021/07/09 00:52:56;;;;;;;3.15;2.67;;;22.60;72.10;;;;;;5092952;28;20075;-52
2021/07/09 00:55:22;;;;;;;2.60;2.20;;;22.60;72.10;;;;;;5094832;28;20048;-50
2021/07/09 00:57:52;;;;;;;2.53;2.13;;;22.60;72.10;;;;;;5096047;28;20050;-52
2021/07/09 01:00:20;;;;;;;2.67;2.17;;;22.60;72.20;;;;;;5095081;28;20400;-52
2021/07/09 01:02:47;;;;;;;1.90;1.55;;;22.60;72.20;;;;;;5095003;28;20085;-52
2021/07/09 01:05:15;;;;;;;3.60;2.30;;;22.60;72.20;;;;;;5094833;28;20119;-42
2021/07/09 01:07:41;;;;;;;2.38;2.00;;;22.60;72.20;;;;;;5094830;28;20573;-49
2021/07/09 01:10:16;;;;;;;2.83;2.40;;;22.60;72.20;;;;;;5095784;28;20044;-48
2021/07/09 01:12:41;;;;;;;2.63;2.10;;;22.60;72.20;;;;;;5094560;28;20048;-46
2021/07/09 01:15:10;;;;;;;3.10;2.63;;;22.60;72.20;;;;;;5094752;28;20136;-46
2021/07/09 01:17:37;;;;;;;2.55;2.10;;;22.50;72.10;;;;;;5094635;28;20115;-52
2021/07/09 01:20:06;;;;;;;3.78;2.55;;;22.50;72.10;;;;;;5095579;28;20050;-51
2021/07/09 01:22:33;;;;;;;2.42;2.13;;;22.60;72.20;;;;;;5094776;28;20044;-50
2021/07/09 01:24:59;;;;;;;2.70;2.42;;;22.60;72.20;;;;;;5094542;28;20481;-49
2021/07/09 01:27:25;;;;;;;3.33;2.47;;;22.50;72.20;;;;;;5093939;28;20079;-51
2021/07/09 01:29:51;;;;;;;3.45;2.03;;;22.60;72.20;;;;;;5095442;28;20570;-51
2021/07/09 01:32:17;;;;;;;3.38;2.08;;;22.60;72.20;;;;;;5094614;28;20051;-50
2021/07/09 01:34:42;;;;;;;2.58;1.95;;;22.50;72.20;;;;;;5094320;28;20417;-51
2021/07/09 01:37:13;;;;;;;2.85;2.10;;;22.50;72.20;;;;;;5094289;28;20056;-48
2021/07/09 01:39:39;;;;;;;2.67;2.28;;;22.50;72.20;;;;;;5094189;28;20157;-45
2021/07/09 01:42:05;;;;;;;2.65;2.15;;;22.50;72.20;;;;;;5094907;28;20593;-41
2021/07/09 01:44:31;;;;;;;2.75;2.22;;;22.50;72.20;;;;;;5108615;28;20133;-49
2021/07/09 01:46:58;;;;;;;2.08;1.88;;;22.50;72.30;;;;;;5114560;28;20047;-52
2021/07/09 01:49:26;;;;;;;2.30;2.10;;;22.50;72.20;;;;;;5114674;28;20093;-50
2021/07/09 01:51:54;;;;;;;2.33;1.92;;;22.50;72.20;;;;;;5113080;28;20048;-52
2021/07/09 01:54:19;;;;;;;2.38;1.65;;;22.50;72.20;;;;;;5114643;28;20044;-53
2021/07/09 01:56:45;;;;;;;2.15;1.90;;;22.50;72.20;;;;;;5114349;28;20077;-53
2021/07/09 01:59:11;;;;;;;2.67;2.08;;;22.50;72.30;;;;;;5114137;28;20047;-53
2021/07/09 02:01:37;;;;;;;1.83;1.73;;;22.50;72.30;;;;;;5112528;28;20135;-49
2021/07/09 02:04:03;;;;;;;2.03;1.80;;;22.50;72.30;;;;;;5113859;28;20079;-52
2021/07/09 02:06:28;;;;;;;1.90;1.60;;;22.50;72.30;;;;;;5114781;28;20127;-52
2021/07/09 02:08:54;;;;;;;2.30;2.10;;;22.50;72.30;;;;;;5114475;28;20491;-50
2021/07/09 02:11:20;;;;;;;2.50;2.15;;;22.50;72.30;;;;;;5112489;28;20550;-50
2021/07/09 02:13:45;;;;;;;2.15;1.80;;;22.50;72.30;;;;;;5113963;28;20135;-51
2021/07/09 02:16:11;;;;;;;2.60;2.20;;;22.50;72.30;;;;;;5114568;28;20052;-47
2021/07/09 02:18:37;;;;;;;2.30;2.00;;;22.50;72.30;;;;;;5114056;28;20134;-48
2021/07/09 02:21:03;;;;;;;2.97;2.38;;;22.50;72.30;;;;;;5112410;28;20093;-43
2021/07/09 02:23:28;;;;;;;2.13;1.92;;;22.50;72.30;;;;;;5096019;28;20456;-50
2021/07/09 02:25:54;;;;;;;2.50;2.20;;;22.50;72.30;;;;;;5114033;28;20047;-47
2021/07/09 02:28:20;;;;;;;2.40;2.20;;;22.50;72.40;;;;;;5113677;28;20420;-51
2021/07/09 02:30:46;;;;;;;3.15;2.25;;;22.50;72.40;;;;;;5113246;28;20139;-51
2021/07/09 02:33:11;;;;;;;2.58;2.10;;;22.50;72.40;;;;;;5111985;28;20084;-40
2021/07/09 02:35:39;;;;;;;2.78;2.42;;;22.40;72.30;;;;;;5113719;28;20043;-51
2021/07/09 02:38:06;;;;;;;2.78;2.17;;;22.50;72.40;;;;;;5113613;28;20047;-46
2021/07/09 02:40:34;;;;;;;2.17;1.95;;;22.50;72.40;;;;;;5113642;28;20166;-49
2021/07/09 02:43:02;;;;;;;2.53;1.98;;;22.40;72.40;;;;;;5111442;28;20054;-50
2021/07/09 02:45:29;;;;;;;2.83;1.98;;;22.40;72.40;;;;;;5103390;28;20425;-49
2021/07/09 02:47:54;;;;;;;2.30;1.98;;;22.40;72.40;;;;;;5113609;28;20048;-49
2021/07/09 02:50:23;;;;;;;2.65;2.10;;;22.40;72.40;;;;;;5113520;28;20181;-41
2021/07/09 02:52:50;;;;;;;2.92;2.15;;;22.40;72.40;;;;;;5111636;28;20062;-48
2021/07/09 02:55:18;;;;;;;2.40;1.95;;;22.40;72.40;;;;;;5113056;28;20488;-50
2021/07/09 02:57:44;;;;;;;2.88;1.98;;;22.40;72.40;;;;;;5113149;28;20075;-52
2021/07/09 03:00:13;;;;;;;2.28;1.85;;;22.50;72.50;;;;;;5113156;28;20488;-49
2021/07/09 03:02:40;;;;;;;2.13;1.92;;;22.40;72.50;;;;;;5112955;28;20056;-48
2021/07/09 03:05:08;;;;;;;3.17;2.50;;;22.40;72.50;;;;;;5111235;28;20381;-49
2021/07/09 03:07:34;;;;;;;3.03;2.30;;;22.40;72.50;;;;;;5112920;28;20055;-50
2021/07/09 03:10:02;;;;;;;3.08;2.70;;;22.40;72.50;;;;;;5112854;28;20128;-37
2021/07/09 03:12:29;;;;;;;2.15;1.95;;;22.40;72.50;;;;;;5112494;28;20446;-48
2021/07/09 03:14:55;;;;;;;2.25;1.80;;;22.40;72.50;;;;;;5110412;28;20063;-48
2021/07/09 03:17:20;;;;;;;3.85;2.25;;;22.40;72.50;;;;;;5110440;28;20469;-42
2021/07/09 03:19:46;;;;;;;2.72;2.40;;;22.40;73.20;;;;;;5111720;28;20043;-44
2021/07/09 03:22:12;;;;;;;2.70;2.30;;;22.40;72.50;;;;;;5111601;28;20479;-51
2021/07/09 03:24:37;;;;;;;2.15;1.95;;;22.40;72.50;;;;;;5110799;28;20122;-44
2021/07/09 03:27:05;;;;;;;2.65;2.20;;;22.40;72.50;;;;;;5112551;28;20153;-51
2021/07/09 03:29:31;;;;;;;2.58;2.28;;;22.40;72.50;;;;;;5112267;28;20090;-50
2021/07/09 03:31:57;;;;;;;2.85;2.00;;;22.40;72.50;;;;;;5112559;28;20074;-49
2021/07/09 03:34:23;;;;;;;1.85;1.63;;;22.40;72.50;;;;;;5112572;28;20078;-52
2021/07/09 03:36:50;;;;;;;2.10;1.90;;;22.40;72.60;;;;;;5110823;28;20047;-47
2021/07/09 03:39:17;;;;;;;2.25;1.95;;;22.40;72.60;;;;;;5112632;28;20208;-47
2021/07/09 03:41:43;;;;;;;2.20;2.00;;;22.40;72.60;;;;;;5092690;28;20142;-47
2021/07/09 03:44:09;;;;;;;2.28;2.08;;;22.30;72.50;;;;;;5092197;28;20381;-51
2021/07/09 03:46:36;;;;;;;2.28;1.98;;;22.30;72.50;;;;;;5093302;28;20143;-45
2021/07/09 03:49:03;;;;;;;3.53;2.03;;;22.40;72.60;;;;;;5100362;28;20044;-51
2021/07/09 03:51:29;;;;;;;2.53;2.08;;;22.40;72.60;;;;;;5092058;28;20051;-51
2021/07/09 03:53:55;;;;;;;2.28;2.08;;;22.30;72.60;;;;;;5091903;28;20075;-49
2021/07/09 03:56:29;;;;;;;2.78;2.22;;;22.40;72.60;;;;;;5091978;28;20071;-52
2021/07/09 03:58:56;;;;;;;2.45;2.20;;;22.40;72.60;;;;;;5110967;28;20051;-47
2021/07/09 04:01:22;;;;;;;3.22;2.30;;;22.30;72.60;;;;;;5112136;28;20047;-50
2021/07/09 04:03:48;;;;;;;2.40;2.20;;;22.30;72.60;;;;;;5112127;28;20047;-46
2021/07/09 04:06:14;;;;;;;2.58;2.25;;;22.30;72.60;;;;;;5112344;28;20043;-47
2021/07/09 04:08:40;;;;;;;3.47;2.60;;;22.30;73.20;;;;;;5092247;28;20071;-46
2021/07/09 04:11:05;;;;;;;3.28;2.42;;;22.30;72.60;;;;;;5112324;28;20108;-48
2021/07/09 04:13:31;;;;;;;1.90;1.70;;;22.30;72.60;;;;;;5112269;28;20083;-51
2021/07/09 04:15:57;;;;;;;2.50;2.00;;;22.30;72.60;;;;;;5112497;28;20058;-49
2021/07/09 04:18:23;;;;;;;2.22;2.03;;;22.30;72.60;;;;;;5110695;28;20051;-49
2021/07/09 04:20:50;;;;;;;2.85;2.25;;;22.30;72.60;;;;;;5111814;28;20043;-49
2021/07/09 04:23:15;;;;;;;2.65;2.17;;;22.30;72.60;;;;;;5112247;28;20093;-49
2021/07/09 04:25:41;;;;;;;2.20;2.00;;;22.30;72.60;;;;;;5112545;28;20051;-50
2021/07/09 04:28:07;;;;;;;2.65;2.13;;;22.30;72.60;;;;;;5114178;28;20085;-46
2021/07/09 04:30:33;;;;;;;2.15;1.92;;;22.30;72.60;;;;;;5098543;28;20048;-47
2021/07/09 04:32:58;;;;;;;1.90;1.80;;;22.30;72.60;;;;;;5096121;28;20044;-46
2021/07/09 04:35:24;;;;;;;1.88;1.77;;;22.20;72.60;;;;;;5095692;28;20040;-47
2021/07/09 04:37:50;;;;;;;2.58;2.13;;;22.30;72.60;;;;;;5095476;28;20051;-47
2021/07/09 04:40:17;;;;;;;2.33;1.90;;;22.30;72.70;;;;;;5096753;28;20059;-46
2021/07/09 04:42:43;;;;;;;2.17;1.88;;;22.30;72.70;;;;;;5095444;28;20044;-45
2021/07/09 04:45:09;;;;;;;2.78;2.25;;;22.30;72.70;;;;;;5095882;28;20070;-46
2021/07/09 04:47:35;;;;;;;2.78;2.05;;;22.30;72.70;;;;;;5095554;28;20440;-52
2021/07/09 04:50:02;;;;;;;2.20;2.00;;;22.30;72.70;;;;;;5096525;28;20047;-50
2021/07/09 04:52:28;;;;;;;2.42;2.22;;;22.30;72.70;;;;;;5095038;28;20396;-46
2021/07/09 04:54:54;;;;;;;2.22;2.03;;;22.30;72.70;;;;;;5114059;28;20050;-51
2021/07/09 04:57:20;;;;;;;2.55;2.13;;;22.30;72.70;;;;;;5115701;28;20043;-47
2021/07/09 04:59:46;;;;;;;2.33;2.10;;;22.30;72.70;;;;;;5115436;28;20048;-42
2021/07/09 05:02:11;;;;;;;2.25;1.90;;;22.40;72.70;;;;;;5113701;28;20561;-49
2021/07/09 05:04:37;;;;;;;2.65;2.05;;;22.30;72.70;;;;;;5115496;28;20055;-43
2021/07/09 05:07:03;;;;;;;2.22;1.90;;;22.30;72.70;;;;;;5114676;28;20488;-45
2021/07/09 05:09:29;;;;;;;2.92;2.50;;;22.30;72.70;;;;;;5115284;28;20048;-47
2021/07/09 05:11:55;;;;;;;2.13;1.92;;;22.30;72.70;;;;;;5113323;28;20047;-50
2021/07/09 05:14:21;;;;;;;1.95;1.67;;;22.30;73.40;;;;;;5110835;28;20055;-49
2021/07/09 05:16:47;;;;;;;2.55;2.08;;;22.30;72.90;;;;;;5094955;28;20048;-47
2021/07/09 05:19:12;;;;;;;2.33;2.08;;;22.20;72.60;;;;;;5094566;28;20441;-47
2021/07/09 05:21:38;;;;;;;2.10;1.80;;;22.30;72.70;;;;;;5095072;28;20417;-44
2021/07/09 05:24:06;;;;;;;2.17;1.98;;;22.30;72.70;;;;;;5094661;28;20503;-52
2021/07/09 05:26:33;;;;;;;2.22;1.95;;;22.30;72.70;;;;;;5094530;28;20056;-51
2021/07/09 05:28:59;;;;;;;2.28;2.08;;;22.30;72.70;;;;;;5093933;28;20048;-48
2021/07/09 05:31:25;;;;;;;2.38;2.08;;;22.30;72.70;;;;;;5094147;28;20046;-54
2021/07/09 05:33:51;;;;;;;2.92;2.08;;;22.30;72.80;;;;;;5095270;28;20051;-50
2021/07/09 05:36:20;;;;;;;2.97;2.22;;;22.30;72.80;;;;;;5103814;28;20044;-46
2021/07/09 05:38:46;;;;;;;2.70;2.15;;;22.30;72.70;;;;;;5113269;28;20070;-45
2021/07/09 05:41:11;;;;;;;2.63;2.10;;;22.30;72.80;;;;;;5114362;28;20477;-42
2021/07/09 05:43:37;;;;;;;2.17;1.90;;;22.30;72.80;;;;;;5112780;28;20096;-47
2021/07/09 05:46:03;;;;;;;2.72;1.80;;;22.30;72.80;;;;;;5114487;28;20043;-51
2021/07/09 05:48:29;;;;;;;2.10;1.90;;;22.30;72.80;;;;;;5114517;28;20050;-44
2021/07/09 05:50:55;;;;;;;2.15;1.90;;;22.30;72.80;;;;;;5114568;28;20047;-53
2021/07/09 05:53:20;;;;;;;2.67;2.00;;;22.20;72.70;;;;;;5114165;28;20403;-45
2021/07/09 05:55:46;;;;;;;2.03;1.83;;;22.30;72.80;;;;;;5112272;28;20043;-49
2021/07/09 05:58:14;;;;;;;2.20;1.95;;;22.30;72.80;;;;;;5114089;28;20623;-46
2021/07/09 06:00:41;;;;;;;2.20;2.00;;;22.30;72.80;;;;;;5114442;28;20052;-49
2021/07/09 06:03:07;;;;;;;2.15;1.95;;;22.30;72.80;;;;;;5114505;28;20057;-48
2021/07/09 06:05:33;;;;;;;2.30;2.00;;;22.30;72.80;;;;;;5112676;28;20073;-48
2021/07/09 06:08:07;;;;;;;2.13;1.92;;;22.30;72.80;;;;;;5114298;28;20040;-47
2021/07/09 06:10:33;;;;;;;2.63;1.95;;;22.30;72.80;;;;;;5113838;28;20058;-48
2021/07/09 06:12:59;;;;;;;2.97;2.20;;;22.30;72.80;;;;;;5113991;28;20054;-50
2021/07/09 06:15:26;;;;;;;2.92;2.25;;;22.30;72.80;;;;;;5112081;28;20118;-53
2021/07/09 06:17:53;;;;;;;2.20;1.70;;;22.30;72.80;;;;;;5113943;28;20093;-50
2021/07/09 06:20:19;;;;;;;2.00;1.80;;;22.30;72.80;;;;;;5114045;28;20047;-52
2021/07/09 06:22:46;;;;;;;2.80;2.38;;;22.30;72.80;;;;;;5113991;28;20491;-52
2021/07/09 06:25:13;;;;;;;2.10;1.90;;;22.30;72.80;;;;;;5113663;28;20047;-52
2021/07/09 06:27:39;;;;;;;1.92;1.73;;;22.30;72.80;;;;;;5112456;28;20086;-50
2021/07/09 06:30:06;;;;;;;3.05;2.05;;;22.30;72.80;;;;;;5113444;28;20492;-48
2021/07/09 06:32:32;;;;;;;2.17;1.98;;;22.30;72.80;;;;;;5114005;28;20459;-52
2021/07/09 06:34:58;;;;;;;1.95;1.75;;;22.30;72.80;;;;;;5114022;28;20066;-49
2021/07/09 06:37:24;;;;;;;1.60;1.50;;;22.30;73.50;;;;;;5112301;28;20544;-52
2021/07/09 06:39:50;;;;;;;1.95;1.75;;;22.30;72.80;;;;;;5113766;28;20047;-43
2021/07/09 06:42:16;;;;;;;2.30;2.10;;;22.30;72.80;;;;;;5113523;28;20126;-47
2021/07/09 06:44:42;;;;;;;2.28;1.90;;;22.20;72.70;;;;;;5113603;28;20114;-49
2021/07/09 06:47:08;;;;;;;2.35;2.15;;;22.30;72.80;;;;;;5111733;28;20100;-45
2021/07/09 06:49:33;;;;;;;2.30;2.10;;;22.30;72.80;;;;;;5097025;28;20383;-46
2021/07/09 06:51:59;;;;;;;2.25;1.80;;;22.30;72.80;;;;;;5113451;28;20044;-49
2021/07/09 06:54:25;;;;;;;1.83;1.73;;;22.30;72.80;;;;;;5113840;28;20052;-48
2021/07/09 06:56:50;;;;;;;2.33;2.00;;;22.20;72.70;;;;;;5097078;28;20600;-49
2021/07/09 06:59:16;;;;;;;2.67;1.92;;;22.30;72.80;;;;;;5101112;28;20055;-52
2021/07/09 07:01:42;;;;;;;2.33;1.92;;;22.30;72.70;;;;;;5093057;28;20138;-50
2021/07/09 07:04:09;;;;;;;2.08;1.85;;;22.30;72.80;;;;;;5093127;28;20118;-51
2021/07/09 07:06:36;;;;;;;2.20;2.00;;;22.30;72.70;;;;;;5093872;28;20055;-52
2021/07/09 07:09:03;;;;;;;2.25;2.03;;;22.30;72.80;;;;;;5092644;28;20068;-53
2021/07/09 07:11:28;;;;;;;1.67;1.58;;;22.30;72.70;;;;;;5092534;28;20122;-54
2021/07/09 07:13:54;;;;;;;2.35;1.92;;;22.30;72.70;;;;;;5092181;28;20190;-51
2021/07/09 07:16:20;;;;;;;2.67;2.33;;;22.30;72.70;;;;;;5093479;28;20067;-51
2021/07/09 07:18:46;;;;;;;2.17;1.80;;;22.30;72.70;;;;;;5092298;28;20090;-47
2021/07/09 07:21:11;;;;;;;2.17;1.98;;;22.30;72.60;;;;;;5092451;28;20136;-47
2021/07/09 07:23:37;;;;;;;2.20;2.00;;;22.30;72.70;;;;;;5102249;28;20075;-52
2021/07/09 07:26:03;;;;;;;2.05;1.85;;;22.30;72.60;;;;;;5112006;28;20461;-46
2021/07/09 07:28:29;;;;;;;2.20;1.95;;;22.30;72.60;;;;;;5112295;28;20345;-53
2021/07/09 07:30:55;;;;;;;2.17;1.90;;;22.30;72.60;;;;;;5112349;28;20052;-53
2021/07/09 07:33:21;;;;;;;2.60;2.40;;;22.30;72.60;;;;;;5112645;28;20412;-46
2021/07/09 07:35:46;;;;;;;2.00;1.80;;;22.30;72.60;;;;;;5111075;28;20043;-49
2021/07/09 07:38:12;;;;;;;2.78;2.30;;;22.30;72.60;;;;;;5112527;28;20043;-49
2021/07/09 07:40:38;;;;;;;2.05;1.75;;;22.30;72.60;;;;;;5112484;28;20941;-45
2021/07/09 07:43:05;;;;;;;2.33;1.85;;;22.30;72.50;;;;;;5112255;28;20054;-51
2021/07/09 07:45:31;;;;;;;2.20;2.00;;;22.30;72.50;;;;;;5110406;28;20488;-50
2021/07/09 07:47:57;;;;;;;2.60;2.17;;;22.30;72.50;;;;;;5112483;28;20125;-49
2021/07/09 07:50:24;;;;;;;2.85;1.90;;;22.30;72.50;;;;;;5112496;28;20380;-52
2021/07/09 07:52:50;;;;;;;2.30;2.10;;;22.30;72.50;;;;;;5112122;28;20126;-52
2021/07/09 07:55:17;;;;;;;2.13;1.92;;;22.40;72.50;;;;;;5110549;28;20071;-52
2021/07/09 07:57:44;;;;;;;1.92;1.75;;;22.40;72.50;;;;;;5111936;28;20093;-52
2021/07/09 08:00:11;;;;;;;2.38;1.88;;;22.40;72.50;;;;;;5111369;28;20055;-49
2021/07/09 08:02:37;;;;;;;2.72;2.13;;;22.40;72.50;;;;;;5115631;28;20351;-48
2021/07/09 08:05:04;;;;;;;1.77;1.55;;;22.40;72.50;;;;;;5118952;28;20122;-48
2021/07/09 08:07:31;;;;;;;1.80;1.70;;;22.40;72.40;;;;;;5117277;28;20047;-46
2021/07/09 08:09:57;;;;;;;2.13;1.92;;;22.40;72.40;;;;;;5119113;28;20044;-51
2021/07/09 08:12:22;;;;;;;2.25;1.92;;;22.40;72.40;;;;;;5118996;28;20043;-49
2021/07/09 08:14:48;;;;;;;2.40;2.20;;;22.40;72.40;;;;;;5118340;28;20051;-53
2021/07/09 08:17:14;;;;;;;2.10;1.77;;;22.40;72.40;;;;;;5117215;28;20066;-49
2021/07/09 08:19:40;;;;;;;2.65;2.33;;;22.40;72.30;;;;;;5118713;28;20043;-52
2021/07/09 08:22:05;;;;;;;2.00;1.80;;;22.40;72.30;;;;;;5118362;28;20048;-48
2021/07/09 08:24:32;;;;;;;1.70;1.60;;;22.40;72.30;;;;;;5118919;28;20047;-52
2021/07/09 08:26:58;;;;;;;2.45;2.15;;;22.40;72.30;;;;;;5117082;28;20101;-51
2021/07/09 08:29:24;;;;;;;2.38;2.13;;;22.40;72.30;;;;;;5118514;28;20059;-52
2021/07/09 08:31:50;;;;;;;2.20;2.00;;;22.40;72.30;;;;;;5118273;28;20048;-52
2021/07/09 08:34:16;;;;;;;2.83;2.40;;;22.40;72.30;;;;;;5118872;28;20046;-49
2021/07/09 08:36:41;;;;;;;3.20;2.58;;;22.40;72.20;;;;;;5118684;28;20480;-52
2021/07/09 08:39:07;;;;;;;3.38;2.83;;;22.40;72.20;;;;;;5116962;28;20131;-53
2021/07/09 08:41:33;;;;;;;3.65;2.80;;;22.50;72.20;;;;;;5118671;28;20255;-50
2021/07/09 08:43:59;;;;;;;2.55;2.20;;;22.50;72.20;;;;;;5118785;28;20529;-52
2021/07/09 08:46:27;;;;;;;2.42;2.13;;;22.40;72.10;;;;;;5118208;28;20075;-50
2021/07/09 08:48:53;;;;;;;2.83;2.28;;;22.50;72.20;;;;;;5116583;28;20040;-46
2021/07/09 08:51:19;;;;;;;2.60;2.40;;;22.50;72.10;;;;;;5118742;28;20138;-51
2021/07/09 08:53:45;;;;;;;2.55;2.33;;;22.50;72.10;;;;;;5118663;28;20130;-49
2021/07/09 08:56:11;;;;;;;2.65;2.40;;;22.50;72.10;;;;;;5118952;28;20044;-45
2021/07/09 08:58:37;;;;;;;3.28;2.30;;;22.50;72.10;;;;;;5118346;28;20040;-39
2021/07/09 09:01:05;;;;;;;2.17;1.98;;;22.50;72.10;;;;;;5116615;28;20048;-44
2021/07/09 09:03:30;;;;;;;2.63;2.40;;;22.50;72.10;;;;;;5102692;28;20048;-51
2021/07/09 09:06:01;;;;;;;2.55;2.10;;;22.50;72.10;;;;;;5098359;28;20070;-51
2021/07/09 09:08:29;;;;;;;2.20;2.00;;;22.50;72.10;;;;;;5098330;28;20055;-47
2021/07/09 09:10:58;;;;;;;2.03;1.83;;;22.50;72.10;;;;;;5099412;28;20468;-47
2021/07/09 09:13:26;;;;;;;2.15;1.95;;;22.50;72.10;;;;;;5097172;28;20078;-50
2021/07/09 09:16:11;;;;;;;1.80;1.70;;;22.40;72.00;;;;;;5094670;28;20079;-47
2021/07/09 09:18:47;;;;;;;1.75;1.65;;;22.60;72.10;;;;;;5094454;28;20048;-50
2021/07/09 09:21:15;;;;;;;1.80;1.58;;;22.60;72.10;;;;;;5096108;28;20071;-45
2021/07/09 09:23:50;;;;;;;2.10;1.90;;;22.60;72.10;;;;;;5094828;28;20062;-50
2021/07/09 09:26:42;;;;;;;2.10;1.90;;;22.60;72.10;;;;;;5094455;28;20048;-49
2021/07/09 09:29:14;;;;;;;2.17;1.98;;;22.60;72.00;;;;;;5094646;28;20122;-49
2021/07/09 09:31:41;;;;;;;2.03;1.77;;;22.60;72.10;;;;;;5095655;28;20119;-48
2021/07/09 09:34:07;;;;;;;1.63;1.52;;;22.60;72.10;;;;;;5094132;28;20382;-49
2021/07/09 09:36:34;;;;;;;1.98;1.77;;;22.60;72.00;;;;;;5094376;28;20481;-49
2021/07/09 09:39:02;;;;;;;2.47;1.70;;;22.60;72.00;;;;;;5094245;28;20105;-46
2021/07/09 09:41:29;;;;;;;1.88;1.77;;;22.60;72.00;;;;;;5095455;28;20147;-52
2021/07/09 09:44:12;;;;;;;2.10;1.70;;;22.60;72.00;;;;;;5094503;28;20044;-52
2021/07/09 09:46:37;;;;;;;1.80;1.70;;;22.60;72.00;;;;;;5094133;28;20044;-52
2021/07/09 09:49:05;;;;;;;1.98;1.77;;;22.70;72.00;;;;;;5093806;28;20052;-48
2021/07/09 09:51:36;;;;;;;1.75;1.60;;;22.70;72.00;;;;;;5094041;28;20353;-51
2021/07/09 09:54:04;;;;;;;1.48;1.38;;;22.70;72.70;;;;;;5095300;28;20389;-47
2021/07/09 09:56:34;;;;;;;1.38;1.27;;;22.70;72.00;;;;;;5094043;28;20059;-47
2021/07/09 09:59:22;;;;;;;1.67;1.58;;;22.70;72.00;;;;;;5093881;28;20052;-48
2021/07/09 10:01:50;;;;;;;1.70;1.60;;;22.70;71.90;;;;;;5093985;28;20044;-53
2021/07/09 10:04:16;;;;;;;1.85;1.55;;;22.70;71.90;;;;;;5094595;28;20394;-48
2021/07/09 10:06:46;;;;;;;1.65;1.55;;;22.70;71.90;;;;;;5111704;28;20044;-52
2021/07/09 10:09:17;;;;;;;1.80;1.70;;;22.70;71.90;;;;;;5114307;28;20070;-52
2021/07/09 10:11:43;;;;;;;1.55;1.45;;;22.80;71.90;;;;;;5114158;28;20039;-47
2021/07/09 10:14:11;;;;;;;1.90;1.60;;;22.80;71.90;;;;;;5112345;28;20047;-45
2021/07/09 10:16:38;;;;;;;1.90;1.65;;;22.80;71.90;;;;;;5114064;28;20048;-51
2021/07/09 10:19:08;;;;;;;1.98;1.63;;;22.80;71.90;;;;;;5113922;28;20051;-53
2021/07/09 10:21:34;;;;;;;1.70;1.60;;;22.80;71.90;;;;;;5113340;28;20075;-42
2021/07/09 10:24:02;;;;;;;1.80;1.50;;;22.80;71.80;;;;;;5111913;28;20496;-46
2021/07/09 10:26:28;;;;;;;1.50;1.40;;;22.80;71.80;;;;;;5113179;28;20054;-51
2021/07/09 10:29:22;;;;;;;2.00;1.80;;;22.80;71.80;;;;;;5113487;28;20143;-46
2021/07/09 10:31:52;;;;;;;1.98;1.70;;;22.80;71.80;;;;;;5111338;28;20048;-53
2021/07/09 10:34:39;;;;;;;1.70;1.55;;;22.80;71.80;;;;;;5113675;28;20140;-50
2021/07/09 10:37:09;;;;;;;1.70;1.48;;;22.90;71.80;;;;;;5113128;28;20450;-52
2021/07/09 10:39:51;;;;;;;2.10;1.90;;;22.80;71.80;;;;;;5113505;28;20047;-50
2021/07/09 10:42:19;;;;;;;1.60;1.50;;;22.90;71.80;;;;;;5113660;28;20116;-52
2021/07/09 10:45:00;;;;;;;1.65;1.52;;;22.90;71.80;;;;;;5113607;28;20143;-48
2021/07/09 10:48:27;;;;;;;1.70;1.60;;;22.90;71.70;;;;;;5111767;28;20043;-52
2021/07/09 10:50:54;;;;;;;1.70;1.60;;;22.90;71.70;;;;;;4952709;29;20122;-53
2021/07/09 10:53:23;;;;;;;1.77;1.52;;;22.90;71.70;;;;;;4952279;29;20126;-53
2021/07/09 10:56:10;;;;;;;1.80;1.70;;;22.90;71.70;;;;;;4952249;29;20062;-47
2021/07/09 10:58:44;;;;;;;1.45;1.35;;;22.90;71.60;;;;;;4952448;29;20063;-48
2021/07/09 11:01:21;;;;;;;1.63;1.30;;;22.90;71.60;;;;;;4952398;29;20078;-51
2021/07/09 11:03:50;;;;;;;1.40;1.30;;;22.90;71.60;;;;;;4952591;29;20303;-50
2021/07/09 11:06:33;;;;;;;1.92;1.40;;;23.00;71.70;;;;;;4952396;28;20191;-46
2021/07/09 11:09:03;;;;;;;1.13;1.03;;;23.00;71.60;;;;;;4951765;29;20044;-52
2021/07/09 11:11:50;;;;;;;1.92;1.52;;;23.00;71.60;;;;;;4952129;29;20535;-50
2021/07/09 11:14:20;;;;;;;1.23;1.13;;;23.00;71.60;;;;;;4952400;29;20139;-52
2021/07/09 11:16:58;;;;;;;1.60;1.50;;;23.00;71.60;;;;;;4936572;29;20511;-43
2021/07/09 11:19:34;;;;;;;1.65;1.55;;;23.00;71.60;;;;;;4952222;29;20063;-51
2021/07/09 11:22:10;;;;;;;2.38;1.83;;;23.10;71.50;;;;;;4952140;29;20134;-49
2021/07/09 11:24:51;;;;;;;1.98;1.48;;;23.10;71.60;;;;;;4951832;29;20055;-49
2021/07/09 11:27:17;;;;;;;1.70;1.30;;;23.10;71.50;;;;;;5062066;28;20047;-48
2021/07/09 11:29:47;;;;;;;1.63;1.20;;;23.10;71.50;;;;;;5110882;28;20061;-50
2021/07/09 11:32:18;;;;;;;2.22;1.60;;;23.10;71.50;;;;;;5112545;28;20051;-48
2021/07/09 11:34:52;;;;;;;1.35;1.25;;;23.10;71.50;;;;;;5112679;28;20123;-50
2021/07/09 11:37:25;;;;;;;1.67;1.40;;;23.10;71.40;;;;;;5112002;28;20147;-44
2021/07/09 11:39:54;;;;;;;2.15;1.52;;;23.20;71.50;;;;;;5110663;28;20401;-50
2021/07/09 11:42:24;;;;;;;1.40;1.30;;;23.20;71.40;;;;;;5112538;28;20137;-48
2021/07/09 11:44:52;;;;;;;1.60;1.50;;;23.20;71.40;;;;;;5112461;28;20126;-45
2021/07/09 11:47:21;;;;;;;1.63;1.45;;;23.20;71.40;;;;;;5112547;28;20155;-50
2021/07/09 11:49:52;;;;;;;1.40;1.30;;;23.20;71.40;;;;;;5110552;28;20059;-46
2021/07/09 11:52:23;;;;;;;1.40;1.30;;;23.20;71.40;;;;;;5112299;28;20044;-46
2021/07/09 11:54:50;;;;;;;1.60;1.50;;;23.20;71.30;;;;;;5112009;28;20139;-43
2021/07/09 11:57:22;;;;;;;1.63;1.52;;;23.20;71.30;;;;;;5112406;28;20047;-48
2021/07/09 11:59:51;;;;;;;1.48;1.38;;;23.20;71.30;;;;;;5111039;28;20071;-40
2021/07/09 12:02:21;;;;;;;2.05;1.42;;;23.20;71.20;;;;;;5111977;28;20044;-48
2021/07/09 12:04:54;;;;;;;1.60;1.50;;;23.20;71.20;;;;;;5112133;28;20544;-46
2021/07/09 12:07:37;;;;;;;1.67;1.50;;;23.30;71.30;;;;;;5112126;28;20044;-50
2021/07/09 12:10:08;;;;;;;1.55;1.45;;;23.30;71.20;;;;;;5111741;28;20047;-50
2021/07/09 12:12:51;;;;;;;1.70;1.60;;;23.30;71.20;;;;;;5107799;28;20070;-43
2021/07/09 12:15:20;;;;;;;1.70;1.60;;;23.30;71.20;;;;;;5091627;28;20044;-51
2021/07/09 12:17:47;;;;;;;1.95;1.60;;;23.30;71.20;;;;;;5091671;28;20047;-41
2021/07/09 12:20:21;;;;;;;1.60;1.50;;;23.30;71.20;;;;;;5091345;28;20047;-45
2021/07/09 12:22:57;;;;;;;1.92;1.45;;;23.40;71.10;;;;;;5092651;28;20044;-51
2021/07/09 12:25:36;;;;;;;1.80;1.67;;;23.40;71.20;;;;;;5091771;28;20048;-49
2021/07/09 12:28:27;;;;;;;1.50;1.40;;;23.30;71.10;;;;;;5091506;28;20071;-53
2021/07/09 12:30:56;;;;;;;1.92;1.75;;;23.30;71.10;;;;;;5091377;28;20088;-52
2021/07/09 12:33:30;;;;;;;1.50;1.40;;;23.40;71.10;;;;;;5092509;28;20044;-49
2021/07/09 12:36:01;;;;;;;1.50;1.40;;;23.40;71.10;;;;;;5091830;28;20040;-51
2021/07/09 12:38:28;;;;;;;1.48;1.38;;;23.30;71.00;;;;;;5091545;28;20048;-47
2021/07/09 12:40:59;;;;;;;1.63;1.50;;;23.40;71.10;;;;;;5091716;28;20052;-54
2021/07/09 12:43:27;;;;;;;1.75;1.30;;;23.40;71.10;;;;;;5092181;28;20075;-54
2021/07/09 12:46:09;;;;;;;1.80;1.52;;;23.40;71.10;;;;;;5104582;28;20111;-53
2021/07/09 12:48:40;;;;;;;1.45;1.35;;;23.40;71.10;;;;;;5112924;28;20171;-49
2021/07/09 12:51:24;;;;;;;1.40;1.30;;;23.40;71.10;;;;;;5115776;28;20112;-48
2021/07/09 12:53:58;;;;;;;1.67;1.38;;;23.40;71.00;;;;;;5113908;28;20474;-44